Gladeville, Tennessee
Current Conditions -  °F | °C
As of 5:53 PM on Saturday 25 Oct 2014 (Local Time) from KBNA Reporting Station
Scattered Clouds Scattered Clouds  
Wind Chill: 23°   Ceiling: Unl
Heat Index: 23°   Visibility: 10mi
Dew Point: 17°   Wind: 6mph
Humidity: 66%   Direction: 310°NW
Pressure: 30.01"   Gusts: NA
Location:  36.11°N, 86.42°W
Report Text: KBNA 252253Z 31005KT 10SM SCT055 SCT180 23/17 A3001 RMK AO2 SLP160 T02330167
Loading
Personal Weather Stations






























Interactive Weather Map
Tropical Storm Tracking
New forecast layout! Learn more

10-Day Weather Forecast

Advertisements
Track Severe Weather on mobile